createdAt,value
2022-12-27T00:03:25.300Z,6.39
2022-12-27T00:08:27.951Z,6.30
2022-12-27T00:13:30.904Z,6.20
2022-12-27T00:18:34.010Z,6.10
2022-12-27T00:23:41.503Z,5.99
2022-12-27T00:28:45.141Z,5.89
2022-12-27T00:33:50.458Z,5.76
2022-12-27T00:38:53.920Z,5.63
2022-12-27T00:43:56.649Z,5.49
2022-12-27T00:48:59.426Z,5.37
2022-12-27T00:54:02.193Z,5.27
2022-12-27T00:59:05.581Z,5.16
2022-12-27T01:04:08.457Z,5.06
2022-12-27T01:09:11.353Z,4.98
2022-12-27T01:14:14.025Z,4.89
2022-12-27T01:19:17.060Z,4.79
2022-12-27T01:24:19.957Z,4.70
2022-12-27T01:29:22.654Z,4.64
2022-12-27T01:34:25.368Z,4.57
2022-12-27T01:39:28.144Z,4.52
2022-12-27T01:44:43.988Z,4.45
2022-12-27T01:49:53.446Z,4.40
2022-12-27T01:55:01.408Z,4.37
2022-12-27T02:00:05.133Z,4.33
2022-12-27T02:05:10.438Z,4.26
2022-12-27T02:10:13.761Z,4.18
2022-12-27T02:15:16.504Z,4.13
2022-12-27T02:20:22.910Z,4.08
2022-12-27T02:26:07.811Z,4.04
2022-12-27T02:31:24.954Z,3.98
2022-12-27T02:36:31.815Z,3.90
2022-12-27T02:41:54.096Z,3.82
2022-12-27T02:47:16.158Z,3.79
2022-12-27T02:53:08.313Z,3.79
2022-12-27T02:58:31.668Z,3.77
2022-12-27T03:03:47.737Z,3.75
2022-12-27T03:09:03.015Z,3.73
2022-12-27T03:14:50.139Z,3.70
2022-12-27T03:20:16.733Z,3.69
2022-12-27T03:25:28.791Z,3.68
2022-12-27T03:30:50.488Z,3.63
2022-12-27T03:36:32.205Z,3.56
2022-12-27T03:41:59.353Z,3.49
2022-12-27T03:47:10.041Z,3.40
2022-12-27T03:52:18.598Z,3.32
2022-12-27T03:57:25.168Z,3.30
2022-12-27T04:02:28.077Z,3.30
2022-12-27T04:07:30.939Z,3.28
2022-12-27T04:12:52.617Z,3.27
2022-12-27T04:18:14.059Z,3.22
2022-12-27T04:23:35.910Z,3.16
2022-12-27T04:28:57.216Z,3.12
2022-12-27T04:34:18.787Z,3.09
2022-12-27T04:39:21.792Z,3.06
2022-12-27T04:44:43.329Z,3.06
2022-12-27T04:50:04.766Z,3.06
2022-12-27T04:55:20.403Z,3.03
2022-12-27T05:00:46.322Z,3.00
2022-12-27T05:05:51.635Z,2.99
2022-12-27T05:11:13.326Z,2.97
2022-12-27T05:16:16.112Z,2.99
2022-12-27T05:21:19.123Z,3.03
2022-12-27T05:26:25.302Z,3.05
2022-12-27T05:31:29.188Z,3.06
2022-12-27T05:36:31.919Z,3.09
2022-12-27T05:41:34.642Z,3.09
2022-12-27T05:46:37.494Z,3.10
2022-12-27T05:51:40.226Z,3.12
2022-12-27T05:56:42.930Z,3.10
2022-12-27T06:01:45.729Z,3.10
2022-12-27T06:06:48.636Z,3.10
2022-12-27T06:11:51.285Z,3.07
2022-12-27T06:16:54.063Z,3.08
2022-12-27T06:21:56.939Z,3.08
2022-12-27T06:26:59.744Z,3.09
2022-12-27T06:32:02.538Z,3.11
2022-12-27T06:37:05.273Z,3.09
2022-12-27T06:42:08.561Z,3.09
2022-12-27T06:47:11.519Z,3.12
2022-12-27T06:52:14.254Z,3.14
2022-12-27T06:57:17.366Z,3.12
2022-12-27T07:02:20.392Z,3.11
2022-12-27T07:07:23.378Z,3.05
2022-12-27T07:12:27.353Z,2.98
2022-12-27T07:17:34.351Z,2.96
2022-12-27T07:22:37.013Z,2.93
2022-12-27T07:27:39.730Z,2.92
2022-12-27T07:32:42.424Z,2.92
2022-12-27T07:37:45.205Z,2.91
2022-12-27T07:42:48.458Z,2.92
2022-12-27T07:47:51.221Z,2.92
2022-12-27T07:52:53.908Z,2.94
2022-12-27T07:57:57.864Z,2.97
2022-12-27T08:03:00.888Z,2.99
2022-12-27T08:08:05.389Z,3.04
2022-12-27T08:13:08.177Z,3.13
2022-12-27T08:18:11.002Z,3.16
2022-12-27T08:23:13.794Z,3.19
2022-12-27T08:28:18.020Z,3.20
2022-12-27T08:33:20.731Z,3.22
2022-12-27T08:38:23.530Z,3.23
2022-12-27T08:43:26.489Z,3.26
2022-12-27T08:48:32.519Z,3.34
2022-12-27T08:53:35.301Z,3.38
2022-12-27T08:58:38.010Z,3.50
2022-12-27T09:03:40.728Z,3.59
2022-12-27T09:08:45.513Z,3.64
2022-12-27T09:13:48.564Z,3.65
2022-12-27T09:18:53.256Z,3.68
2022-12-27T09:23:56.315Z,3.70
2022-12-27T09:29:00.351Z,3.72
2022-12-27T09:34:03.150Z,3.76
2022-12-27T09:39:05.921Z,3.91
2022-12-27T09:44:14.898Z,4.07
2022-12-27T09:49:27.579Z,4.08
2022-12-27T09:54:46.413Z,4.04
2022-12-27T09:59:52.776Z,3.99
2022-12-27T10:05:19.616Z,3.92
2022-12-27T10:10:42.645Z,3.88
2022-12-27T10:15:48.504Z,4.02
2022-12-27T10:21:24.168Z,4.07
2022-12-27T10:26:27.341Z,4.05
2022-12-27T10:31:32.004Z,4.05
2022-12-27T10:36:34.798Z,3.98
2022-12-27T10:41:50.158Z,3.91
2022-12-27T10:46:55.374Z,3.89
2022-12-27T10:52:08.544Z,3.90
2022-12-27T10:57:27.991Z,3.90
2022-12-27T11:02:30.739Z,3.86
2022-12-27T11:07:34.755Z,3.84
2022-12-27T11:12:37.854Z,3.85
2022-12-27T11:17:52.097Z,3.86
2022-12-27T11:23:12.954Z,3.88
2022-12-27T11:28:30.762Z,3.90
2022-12-27T11:33:37.636Z,3.93
2022-12-27T11:38:44.681Z,3.95
2022-12-27T11:43:52.926Z,3.97
2022-12-27T11:48:58.801Z,3.98
2022-12-27T11:54:32.142Z,3.99
2022-12-27T11:59:43.896Z,4.00
2022-12-27T12:05:08.021Z,3.98
2022-12-27T12:10:19.552Z,4.02
2022-12-27T12:15:22.470Z,4.01
2022-12-27T12:20:50.812Z,4.02
2022-12-27T12:25:56.618Z,3.92
2022-12-27T12:31:11.152Z,3.85
2022-12-27T12:36:29.205Z,3.79
2022-12-27T12:41:53.155Z,3.77
2022-12-27T12:47:10.188Z,3.74
2022-12-27T12:52:24.973Z,3.72
2022-12-27T12:57:57.374Z,3.66
2022-12-27T13:03:21.889Z,3.58
2022-12-27T13:08:38.996Z,3.49
2022-12-27T13:14:22.893Z,3.42
2022-12-27T13:19:47.641Z,3.37
2022-12-27T13:25:14.357Z,3.38
2022-12-27T13:30:43.603Z,3.37
2022-12-27T13:36:14.490Z,3.38
2022-12-27T13:42:11.265Z,3.37
2022-12-27T13:47:39.023Z,3.33
2022-12-27T13:53:11.800Z,3.25
2022-12-27T13:58:36.861Z,3.12
2022-12-27T14:03:54.856Z,2.98
2022-12-27T14:09:10.686Z,2.91
2022-12-27T14:14:17.612Z,2.86
2022-12-27T14:19:29.382Z,2.85
2022-12-27T14:24:53.336Z,2.85
2022-12-27T14:30:21.888Z,2.85
2022-12-27T14:36:08.509Z,2.86
2022-12-27T14:41:44.751Z,2.84
2022-12-27T14:46:59.590Z,2.83
2022-12-27T14:52:34.869Z,2.83
2022-12-27T14:57:48.249Z,2.84
2022-12-27T15:03:33.690Z,2.82
2022-12-27T15:08:47.508Z,2.83
2022-12-27T15:13:59.121Z,2.82
2022-12-27T15:19:29.318Z,2.85
2022-12-27T15:24:47.376Z,2.85
2022-12-27T15:30:17.022Z,2.86
2022-12-27T15:35:57.757Z,2.86
2022-12-27T15:41:09.613Z,2.86
2022-12-27T15:46:56.067Z,2.86
2022-12-27T15:52:35.709Z,2.86
2022-12-27T15:57:44.342Z,2.88
2022-12-27T16:02:47.186Z,2.89
2022-12-27T16:07:52.312Z,2.89
2022-12-27T16:12:58.437Z,2.90
2022-12-27T16:18:02.694Z,2.92
2022-12-27T16:23:08.034Z,2.90
2022-12-27T16:28:17.025Z,2.91
2022-12-27T16:33:26.008Z,2.92
2022-12-27T16:38:30.753Z,2.93
2022-12-27T16:44:02.000Z,2.94
2022-12-27T16:49:16.662Z,2.94
2022-12-27T16:54:48.068Z,2.97
2022-12-27T17:00:35.673Z,2.96
2022-12-27T17:05:44.800Z,2.96
2022-12-27T17:10:59.933Z,2.98
2022-12-27T17:16:05.464Z,3.01
2022-12-27T17:21:14.956Z,3.01
2022-12-27T17:26:42.537Z,3.00
2022-12-27T17:31:58.643Z,2.98
2022-12-27T17:37:11.517Z,3.00
2022-12-27T17:42:52.275Z,3.04
2022-12-27T17:48:09.725Z,3.07
2022-12-27T17:53:35.201Z,3.05
2022-12-27T17:58:38.457Z,3.01
2022-12-27T18:03:47.538Z,3.00
2022-12-27T18:08:51.315Z,2.99
2022-12-27T18:13:56.691Z,2.99
2022-12-27T18:19:00.828Z,3.00
2022-12-27T18:24:23.789Z,3.00
2022-12-27T18:29:26.562Z,2.99
2022-12-27T18:34:33.415Z,2.98
2022-12-27T18:39:38.874Z,2.99
2022-12-27T18:44:53.075Z,3.00
2022-12-27T18:50:02.417Z,3.00
2022-12-27T18:55:20.878Z,2.97
2022-12-27T19:00:26.673Z,2.93
2022-12-27T19:05:30.340Z,2.85
2022-12-27T19:10:33.753Z,2.82
2022-12-27T19:15:44.931Z,2.76
2022-12-27T19:20:59.955Z,2.66
2022-12-27T19:26:17.852Z,2.56
2022-12-27T19:31:22.126Z,2.46
2022-12-27T19:36:28.019Z,2.39
2022-12-27T19:41:31.863Z,2.34
2022-12-27T19:46:34.677Z,2.27
2022-12-27T19:51:37.839Z,2.20
2022-12-27T19:56:40.492Z,2.16
2022-12-27T20:01:45.725Z,2.10
2022-12-27T20:06:49.306Z,2.05
2022-12-27T20:11:52.015Z,2.00
2022-12-27T20:16:54.813Z,1.97
2022-12-27T20:21:57.952Z,1.93
2022-12-27T20:27:01.257Z,1.88
2022-12-27T20:32:04.130Z,1.85
2022-12-27T20:37:07.231Z,1.81
2022-12-27T20:42:10.108Z,1.77
2022-12-27T20:47:12.826Z,1.73
2022-12-27T20:52:15.674Z,1.71
2022-12-27T20:57:18.474Z,1.68
2022-12-27T21:02:21.359Z,1.67
2022-12-27T21:07:24.382Z,1.62
2022-12-27T21:12:27.287Z,1.59
2022-12-27T21:17:30.195Z,1.54
2022-12-27T21:22:32.994Z,1.52
2022-12-27T21:27:36.033Z,1.52
2022-12-27T21:32:38.806Z,1.51
2022-12-27T21:37:41.632Z,1.51
2022-12-27T21:42:44.558Z,1.52
2022-12-27T21:47:47.520Z,1.52
2022-12-27T21:52:50.525Z,1.56
2022-12-27T21:57:53.444Z,1.58
2022-12-27T22:02:56.455Z,1.61
2022-12-27T22:07:59.544Z,1.61
2022-12-27T22:13:02.559Z,1.63
2022-12-27T22:18:05.444Z,1.63
2022-12-27T22:23:08.332Z,1.64
2022-12-27T22:28:11.270Z,1.67
2022-12-27T22:33:15.772Z,1.68
2022-12-27T22:38:18.671Z,1.71
2022-12-27T22:43:21.574Z,1.72
2022-12-27T22:48:24.588Z,1.71
2022-12-27T22:53:27.493Z,1.73
2022-12-27T22:58:32.778Z,1.71
2022-12-27T23:03:35.586Z,1.72
2022-12-27T23:08:42.888Z,1.71
2022-12-27T23:13:47.298Z,1.72
2022-12-27T23:18:50.367Z,1.74
2022-12-27T23:23:53.080Z,1.74
2022-12-27T23:28:56.244Z,1.74
2022-12-27T23:33:59.625Z,1.75
2022-12-27T23:39:02.667Z,1.79
2022-12-27T23:44:05.525Z,1.81
2022-12-27T23:49:08.673Z,1.84
2022-12-27T23:54:11.456Z,1.82
2022-12-27T23:59:14.183Z,1.85
